Terminal Aerodrome Forecast
Issued by NWS Blacksburg, VA

Home | Current Version | Previous Version | Text Only | Print | Product List | Glossary On
Versions: 1 2 3 4 5 6 7 8 9 10 11 12 13 14 15
000
FTUS41 KRNK 262336
TAFLYH
TAF
KLYH 262336Z 2700/2724 20007KT P6SM BKN060
     FM270800 21003KT 4SM BR SCT250
     FM271400 20004KT P6SM SKC
     FM271700 19007KT P6SM SCT050 BKN080=

USA.gov is the U.S. government's official web portal to all federal, state and local government web resources and services.